Algona, Iowa
Current Conditions -  °F | °C
As of 5:15 PM on Sunday 21 Dec 2014 (Local Time) from KAXA Reporting Station
Haze Haze  
Wind Chill: -3°   Ceiling: 500
Heat Index:   Visibility: 4mi
Dew Point:   Wind: 20mph
Humidity: 100%   Direction: 180°S
Pressure: 29.73"   Gusts: 28mph
Location:  43.07°N, 94.23°W
Report Text: KAXA 212315Z AUTO 18017G24KT 4SM BR OVC005 03/03 A2973 RMK AO2
Loading
Personal Weather Stations






























Interactive Weather Map New forecast layout! Learn more

10-Day Weather Forecast

Advertisements
Track Severe Weather on mobile